RYR42CH EGSS-LGSR
Flight info
| Callsign | RYR42CH |
|---|---|
| Flight time | 3h 26m |
| Altitude | 37000 |
| Route | CLN M84 KONAN DCT KOK DCT RITAX DCT EDISA DCT PICWI DCT UTABA DCT BEMKI DCT ELMEM DCT DIRAB DCT PEVAL DCT VAKSU DCT KOFER DCT UNDER DCT PINDO DCT PIKOS UL607 NETIS M601 PEXAN |
| Aircraft | B738/M-SDE3FGILRWY/SB1 |
Departure
| Time | 2026-04-26 09:39 |
|---|---|
| Airport | London Stansted Airport (EGSS) |
Arrival
| Time | 2026-04-26 13:06 |
|---|---|
| Airport | Santorini International Airport (LGSR) |
| Time | Latitude | Longitude | Altitude | Speed | Heading |
|---|---|---|---|---|---|
| 2026-04-26 09:17 | 51.89190 | 0.26052 | 351 ft | 0 kts | 43° |
| 2026-04-26 09:29 | 51.89179 | 0.26036 | 353 ft | 4 kts | 43° |
| 2026-04-26 09:29 | 51.89164 | 0.26012 | 361 ft | 4 kts | 55° |
| 2026-04-26 09:29 | 51.89156 | 0.25974 | 360 ft | 4 kts | 93° |
| 2026-04-26 09:29 | 51.89158 | 0.25935 | 357 ft | 4 kts | 75° |
| 2026-04-26 09:30 | 51.89149 | 0.25912 | 354 ft | 4 kts | 348° |
| 2026-04-26 09:30 | 51.89131 | 0.25934 | 355 ft | 4 kts | 313° |
| 2026-04-26 09:30 | 51.89126 | 0.25941 | 356 ft | 1 kts | 313° |
| 2026-04-26 09:32 | 51.89128 | 0.25939 | 355 ft | 1 kts | 313° |
| 2026-04-26 09:32 | 51.89145 | 0.25909 | 361 ft | 6 kts | 312° |
| 2026-04-26 09:32 | 51.89188 | 0.25834 | 358 ft | 14 kts | 314° |
| 2026-04-26 09:33 | 51.89276 | 0.25684 | 351 ft | 20 kts | 313° |
| 2026-04-26 09:33 | 51.89333 | 0.25520 | 356 ft | 16 kts | 243° |
| 2026-04-26 09:33 | 51.89256 | 0.25397 | 351 ft | 16 kts | 222° |
| 2026-04-26 09:33 | 51.89164 | 0.25258 | 352 ft | 21 kts | 223° |
| 2026-04-26 09:34 | 51.89042 | 0.25076 | 355 ft | 26 kts | 223° |
| 2026-04-26 09:34 | 51.88915 | 0.24887 | 358 ft | 24 kts | 222° |
| 2026-04-26 09:34 | 51.88797 | 0.24708 | 354 ft | 23 kts | 222° |
| 2026-04-26 09:34 | 51.88673 | 0.24523 | 347 ft | 27 kts | 223° |
| 2026-04-26 09:35 | 51.88531 | 0.24309 | 346 ft | 28 kts | 223° |
| 2026-04-26 09:35 | 51.88393 | 0.24101 | 343 ft | 26 kts | 223° |
| 2026-04-26 09:35 | 51.88263 | 0.23906 | 348 ft | 25 kts | 223° |
| 2026-04-26 09:35 | 51.88138 | 0.23720 | 337 ft | 24 kts | 222° |
| 2026-04-26 09:36 | 51.88019 | 0.23540 | 337 ft | 23 kts | 223° |
| 2026-04-26 09:36 | 51.87898 | 0.23361 | 338 ft | 24 kts | 223° |
| 2026-04-26 09:36 | 51.87782 | 0.23185 | 339 ft | 23 kts | 223° |
| 2026-04-26 09:36 | 51.87755 | 0.22993 | 337 ft | 20 kts | 313° |
| 2026-04-26 09:37 | 51.87741 | 0.22826 | 334 ft | 18 kts | 223° |
| 2026-04-26 09:37 | 51.87640 | 0.22676 | 335 ft | 21 kts | 222° |
| 2026-04-26 09:37 | 51.87530 | 0.22507 | 329 ft | 16 kts | 230° |
| 2026-04-26 09:37 | 51.87559 | 0.22368 | 327 ft | 15 kts | 308° |
| 2026-04-26 09:38 | 51.87641 | 0.22261 | 323 ft | 16 kts | 355° |
| 2026-04-26 09:38 | 51.87732 | 0.22328 | 327 ft | 13 kts | 44° |
| 2026-04-26 09:38 | 51.87750 | 0.22355 | 328 ft | 0 kts | 43° |
| 2026-04-26 09:38 | 51.87776 | 0.22394 | 330 ft | 20 kts | 44° |
| 2026-04-26 09:39 | 51.88051 | 0.22808 | 329 ft | 87 kts | 43° |
| 2026-04-26 09:39 | 51.88646 | 0.23695 | 338 ft | 143 kts | 43° |
| 2026-04-26 09:39 | 51.89446 | 0.24891 | 700 ft | 161 kts | 46° |
| 2026-04-26 09:39 | 51.90318 | 0.26173 | 1245 ft | 177 kts | 45° |
| 2026-04-26 09:40 | 51.91139 | 0.27609 | 2010 ft | 176 kts | 59° |
| 2026-04-26 09:40 | 51.91603 | 0.29508 | 2421 ft | 192 kts | 85° |
| 2026-04-26 09:40 | 51.91522 | 0.31695 | 2987 ft | 194 kts | 104° |
| 2026-04-26 09:40 | 51.91035 | 0.33642 | 3866 ft | 183 kts | 115° |
| 2026-04-26 09:41 | 51.90468 | 0.35519 | 4444 ft | 188 kts | 115° |
| 2026-04-26 09:41 | 51.89889 | 0.37489 | 4844 ft | 200 kts | 115° |
| 2026-04-26 09:41 | 51.89287 | 0.39503 | 5423 ft | 197 kts | 116° |
| 2026-04-26 09:41 | 51.88670 | 0.41597 | 5737 ft | 206 kts | 115° |
| 2026-04-26 09:42 | 51.88076 | 0.43668 | 6371 ft | 202 kts | 115° |
| 2026-04-26 09:42 | 51.87481 | 0.45725 | 6895 ft | 203 kts | 115° |
| 2026-04-26 09:42 | 51.86880 | 0.47801 | 7382 ft | 204 kts | 115° |
| 2026-04-26 09:42 | 51.86274 | 0.49888 | 7829 ft | 207 kts | 115° |
| 2026-04-26 09:43 | 51.85651 | 0.52018 | 8204 ft | 211 kts | 116° |
| 2026-04-26 09:43 | 51.85015 | 0.54187 | 8593 ft | 215 kts | 116° |
| 2026-04-26 09:43 | 51.84365 | 0.56396 | 8992 ft | 219 kts | 116° |
| 2026-04-26 09:43 | 51.83717 | 0.58614 | 9384 ft | 223 kts | 115° |
| 2026-04-26 09:44 | 51.83215 | 0.61043 | 9772 ft | 228 kts | 103° |
| 2026-04-26 09:44 | 51.82989 | 0.63593 | 10113 ft | 236 kts | 94° |
| 2026-04-26 09:44 | 51.83000 | 0.66291 | 10425 ft | 245 kts | 88° |
| 2026-04-26 09:44 | 51.83112 | 0.69089 | 10733 ft | 254 kts | 86° |
| 2026-04-26 09:45 | 51.83241 | 0.72040 | 10986 ft | 271 kts | 86° |
| 2026-04-26 09:45 | 51.83374 | 0.75154 | 11300 ft | 286 kts | 86° |
| 2026-04-26 09:45 | 51.83508 | 0.78489 | 11343 ft | 304 kts | 87° |
| 2026-04-26 09:45 | 51.83639 | 0.81912 | 11356 ft | 305 kts | 87° |
| 2026-04-26 09:46 | 51.83764 | 0.85321 | 11351 ft | 302 kts | 87° |
| 2026-04-26 09:46 | 51.83885 | 0.88663 | 11623 ft | 294 kts | 87° |
| 2026-04-26 09:46 | 51.84004 | 0.91988 | 12075 ft | 301 kts | 87° |
| 2026-04-26 09:46 | 51.84126 | 0.95413 | 12518 ft | 309 kts | 87° |
| 2026-04-26 09:47 | 51.84250 | 0.98913 | 12967 ft | 312 kts | 86° |
| 2026-04-26 09:47 | 51.84065 | 1.02391 | 13355 ft | 312 kts | 111° |
| 2026-04-26 09:47 | 51.82872 | 1.05244 | 13813 ft | 307 kts | 143° |
| 2026-04-26 09:47 | 51.81062 | 1.07050 | 14303 ft | 309 kts | 154° |
| 2026-04-26 09:48 | 51.79115 | 1.08644 | 14699 ft | 318 kts | 156° |
| 2026-04-26 09:48 | 51.77099 | 1.10242 | 15137 ft | 328 kts | 156° |
| 2026-04-26 09:48 | 51.75015 | 1.11894 | 15565 ft | 339 kts | 155° |
| 2026-04-26 09:48 | 51.72871 | 1.13608 | 15997 ft | 349 kts | 155° |
| 2026-04-26 09:49 | 51.70672 | 1.15381 | 16442 ft | 358 kts | 155° |
| 2026-04-26 09:49 | 51.68418 | 1.17208 | 16886 ft | 366 kts | 155° |
| 2026-04-26 09:49 | 51.66171 | 1.19035 | 17312 ft | 367 kts | 155° |
| 2026-04-26 09:49 | 51.63888 | 1.20895 | 17751 ft | 368 kts | 155° |
| 2026-04-26 09:50 | 51.61597 | 1.22760 | 18205 ft | 369 kts | 155° |
| 2026-04-26 09:50 | 51.59304 | 1.24625 | 18649 ft | 370 kts | 155° |
| 2026-04-26 09:50 | 51.57005 | 1.26492 | 19048 ft | 371 kts | 155° |
| 2026-04-26 09:50 | 51.54697 | 1.28364 | 19445 ft | 372 kts | 155° |
| 2026-04-26 09:51 | 51.52360 | 1.30258 | 19864 ft | 379 kts | 155° |
| 2026-04-26 09:51 | 51.49993 | 1.32174 | 20281 ft | 384 kts | 155° |
| 2026-04-26 09:51 | 51.47592 | 1.34114 | 20707 ft | 388 kts | 155° |
| 2026-04-26 09:51 | 51.45200 | 1.36127 | 21127 ft | 391 kts | 150° |
| 2026-04-26 09:52 | 51.43010 | 1.38746 | 21558 ft | 394 kts | 139° |
| 2026-04-26 09:52 | 51.39445 | 1.45458 | 22440 ft | 399 kts | 128° |
| 2026-04-26 09:52 | 51.37766 | 1.49024 | 22895 ft | 403 kts | 128° |
| 2026-04-26 09:53 | 51.36077 | 1.52615 | 23360 ft | 407 kts | 128° |
| 2026-04-26 09:53 | 51.34358 | 1.56239 | 23828 ft | 410 kts | 128° |
| 2026-04-26 09:53 | 51.32622 | 1.59869 | 24228 ft | 413 kts | 128° |
| 2026-04-26 09:53 | 51.30867 | 1.63519 | 24616 ft | 416 kts | 128° |
| 2026-04-26 09:54 | 51.29092 | 1.67190 | 25027 ft | 418 kts | 128° |
| 2026-04-26 09:54 | 51.27310 | 1.70865 | 25450 ft | 419 kts | 128° |
| 2026-04-26 09:54 | 51.25521 | 1.74549 | 25875 ft | 421 kts | 128° |
| 2026-04-26 09:54 | 51.23723 | 1.78247 | 26259 ft | 423 kts | 128° |
| 2026-04-26 09:55 | 51.21937 | 1.81917 | 26660 ft | 425 kts | 128° |
| 2026-04-26 09:55 | 51.20119 | 1.85648 | 27039 ft | 427 kts | 128° |
| 2026-04-26 09:55 | 51.18289 | 1.89398 | 27397 ft | 430 kts | 128° |
| 2026-04-26 09:55 | 51.16446 | 1.93168 | 27767 ft | 432 kts | 128° |
| 2026-04-26 09:56 | 51.14700 | 1.97072 | 28120 ft | 434 kts | 119° |
| 2026-04-26 09:56 | 51.13442 | 2.01437 | 28497 ft | 435 kts | 108° |
| 2026-04-26 09:56 | 51.12685 | 2.06099 | 28875 ft | 434 kts | 96° |
| 2026-04-26 09:56 | 51.12390 | 2.10873 | 29277 ft | 434 kts | 92° |
| 2026-04-26 09:57 | 51.12170 | 2.15669 | 29661 ft | 435 kts | 92° |
| 2026-04-26 09:57 | 51.11954 | 2.20471 | 30052 ft | 436 kts | 92° |
| 2026-04-26 09:57 | 51.11723 | 2.25282 | 30440 ft | 436 kts | 92° |
| 2026-04-26 09:57 | 51.11475 | 2.30105 | 30734 ft | 438 kts | 92° |
| 2026-04-26 09:58 | 51.11215 | 2.34946 | 31028 ft | 439 kts | 93° |
| 2026-04-26 09:58 | 51.10946 | 2.39794 | 31336 ft | 441 kts | 93° |
| 2026-04-26 09:58 | 51.10672 | 2.44662 | 31636 ft | 442 kts | 93° |
| 2026-04-26 09:58 | 51.10397 | 2.49529 | 31939 ft | 442 kts | 93° |
| 2026-04-26 09:59 | 51.10121 | 2.54410 | 32245 ft | 443 kts | 93° |
| 2026-04-26 09:59 | 51.09936 | 2.57640 | 32452 ft | 443 kts | 93° |
| 2026-04-26 09:59 | 51.09403 | 2.64149 | 32851 ft | 445 kts | 101° |
| 2026-04-26 09:59 | 51.08491 | 2.68861 | 33157 ft | 447 kts | 112° |
| 2026-04-26 10:00 | 51.07185 | 2.73349 | 33416 ft | 449 kts | 115° |
| 2026-04-26 10:00 | 51.05802 | 2.77822 | 33574 ft | 452 kts | 115° |
| 2026-04-26 10:00 | 51.04393 | 2.82311 | 33751 ft | 455 kts | 115° |
| 2026-04-26 10:00 | 51.02979 | 2.86819 | 33934 ft | 458 kts | 115° |
| 2026-04-26 10:01 | 51.01562 | 2.91371 | 34105 ft | 461 kts | 115° |
| 2026-04-26 10:01 | 51.00144 | 2.95954 | 34274 ft | 463 kts | 115° |
| 2026-04-26 10:01 | 50.98744 | 3.00496 | 34415 ft | 465 kts | 115° |
| 2026-04-26 10:01 | 50.97322 | 3.05122 | 34571 ft | 467 kts | 115° |
| 2026-04-26 10:02 | 50.95904 | 3.09736 | 34712 ft | 469 kts | 115° |
| 2026-04-26 10:02 | 50.94459 | 3.14432 | 34870 ft | 471 kts | 115° |
| 2026-04-26 10:02 | 50.93015 | 3.19114 | 35012 ft | 473 kts | 115° |
| 2026-04-26 10:02 | 50.91567 | 3.23802 | 35155 ft | 474 kts | 115° |
| 2026-04-26 10:03 | 50.90111 | 3.28503 | 35306 ft | 476 kts | 115° |
| 2026-04-26 10:03 | 50.88648 | 3.33215 | 35460 ft | 477 kts | 115° |
| 2026-04-26 10:03 | 50.87182 | 3.37930 | 35608 ft | 478 kts | 115° |
| 2026-04-26 10:03 | 50.85708 | 3.42660 | 35753 ft | 479 kts | 115° |
| 2026-04-26 10:04 | 50.84230 | 3.47396 | 35909 ft | 480 kts | 115° |
| 2026-04-26 10:04 | 50.82837 | 3.52205 | 36052 ft | 481 kts | 110° |
| 2026-04-26 10:04 | 50.81716 | 3.57189 | 36194 ft | 481 kts | 109° |
| 2026-04-26 10:04 | 50.80488 | 3.62104 | 36352 ft | 481 kts | 112° |
| 2026-04-26 10:05 | 50.79171 | 3.66980 | 36503 ft | 482 kts | 112° |
| 2026-04-26 10:05 | 50.77774 | 3.71787 | 36656 ft | 482 kts | 115° |
| 2026-04-26 10:05 | 50.76271 | 3.76527 | 36818 ft | 481 kts | 117° |
| 2026-04-26 10:05 | 50.74728 | 3.81211 | 36979 ft | 480 kts | 117° |
| 2026-04-26 10:06 | 50.73178 | 3.85873 | 37133 ft | 478 kts | 117° |
| 2026-04-26 10:06 | 50.71645 | 3.90504 | 37346 ft | 476 kts | 117° |
| 2026-04-26 10:06 | 50.68621 | 3.99727 | 37302 ft | 468 kts | 117° |
| 2026-04-26 10:07 | 50.65675 | 4.08781 | 37314 ft | 463 kts | 117° |
| 2026-04-26 10:07 | 50.62738 | 4.17805 | 37314 ft | 462 kts | 117° |
| 2026-04-26 10:08 | 50.59816 | 4.26745 | 37312 ft | 462 kts | 117° |
| 2026-04-26 10:08 | 50.56868 | 4.35729 | 37309 ft | 463 kts | 117° |
| 2026-04-26 10:09 | 50.54384 | 4.43270 | 37310 ft | 463 kts | 117° |
| 2026-04-26 10:09 | 50.50931 | 4.53717 | 37306 ft | 464 kts | 117° |
| 2026-04-26 10:10 | 50.47944 | 4.62718 | 37315 ft | 465 kts | 117° |
| 2026-04-26 10:10 | 50.44942 | 4.71731 | 37306 ft | 466 kts | 117° |
| 2026-04-26 10:11 | 50.41928 | 4.80751 | 37306 ft | 467 kts | 117° |
| 2026-04-26 10:11 | 50.38902 | 4.89772 | 37298 ft | 468 kts | 117° |
| 2026-04-26 10:12 | 50.35863 | 4.98801 | 37289 ft | 468 kts | 117° |
| 2026-04-26 10:12 | 50.32815 | 5.07823 | 37298 ft | 468 kts | 118° |
| 2026-04-26 10:13 | 50.30282 | 5.15297 | 37278 ft | 468 kts | 118° |
| 2026-04-26 10:13 | 50.27233 | 5.24265 | 37280 ft | 466 kts | 118° |
| 2026-04-26 10:14 | 50.24188 | 5.33188 | 37278 ft | 465 kts | 118° |
| 2026-04-26 10:14 | 50.21143 | 5.42080 | 37276 ft | 463 kts | 118° |
| 2026-04-26 10:15 | 50.18100 | 5.50938 | 37274 ft | 462 kts | 118° |
| 2026-04-26 10:15 | 50.15059 | 5.59758 | 37267 ft | 461 kts | 118° |
| 2026-04-26 10:16 | 50.12021 | 5.68543 | 37265 ft | 460 kts | 118° |
| 2026-04-26 10:16 | 50.08979 | 5.77310 | 37256 ft | 459 kts | 118° |
| 2026-04-26 10:17 | 50.05769 | 5.85894 | 37260 ft | 458 kts | 123° |
| 2026-04-26 10:17 | 50.02282 | 5.94187 | 37256 ft | 458 kts | 124° |
| 2026-04-26 10:18 | 49.98768 | 6.02440 | 37260 ft | 458 kts | 124° |
| 2026-04-26 10:18 | 49.95275 | 6.10713 | 37256 ft | 458 kts | 124° |
| 2026-04-26 10:19 | 49.91790 | 6.18998 | 37249 ft | 459 kts | 124° |
| 2026-04-26 10:19 | 49.88300 | 6.27282 | 37249 ft | 459 kts | 124° |
| 2026-04-26 10:20 | 49.84799 | 6.35569 | 37240 ft | 459 kts | 124° |
| 2026-04-26 10:20 | 49.81314 | 6.43789 | 37242 ft | 460 kts | 124° |
| 2026-04-26 10:21 | 49.77796 | 6.52060 | 37233 ft | 460 kts | 124° |
| 2026-04-26 10:21 | 49.74273 | 6.60316 | 37240 ft | 460 kts | 124° |
| 2026-04-26 10:22 | 49.70738 | 6.68575 | 37238 ft | 460 kts | 124° |
| 2026-04-26 10:22 | 49.67201 | 6.76811 | 37249 ft | 460 kts | 124° |
| 2026-04-26 10:23 | 49.63660 | 6.85034 | 37237 ft | 460 kts | 125° |
| 2026-04-26 10:23 | 49.60110 | 6.93251 | 37239 ft | 460 kts | 124° |
| 2026-04-26 10:24 | 49.56557 | 7.01449 | 37253 ft | 460 kts | 125° |
| 2026-04-26 10:24 | 49.53003 | 7.09624 | 37251 ft | 460 kts | 125° |
| 2026-04-26 10:25 | 49.49464 | 7.17742 | 37255 ft | 459 kts | 125° |
| 2026-04-26 10:25 | 49.45900 | 7.25890 | 37257 ft | 459 kts | 125° |
| 2026-04-26 10:26 | 49.42333 | 7.34019 | 37260 ft | 459 kts | 125° |
| 2026-04-26 10:26 | 49.38761 | 7.42137 | 37260 ft | 459 kts | 125° |
| 2026-04-26 10:27 | 49.35184 | 7.50242 | 37269 ft | 458 kts | 125° |
| 2026-04-26 10:27 | 49.31602 | 7.58334 | 37263 ft | 459 kts | 126° |
| 2026-04-26 10:28 | 49.28010 | 7.66421 | 37260 ft | 459 kts | 126° |
| 2026-04-26 10:28 | 49.24419 | 7.74482 | 37257 ft | 458 kts | 126° |
| 2026-04-26 10:29 | 49.20825 | 7.82528 | 37254 ft | 458 kts | 126° |
| 2026-04-26 10:29 | 49.17224 | 7.90564 | 37257 ft | 458 kts | 126° |
| 2026-04-26 10:30 | 49.13619 | 7.98585 | 37253 ft | 457 kts | 126° |
| 2026-04-26 10:30 | 49.10016 | 8.06581 | 37257 ft | 457 kts | 126° |
| 2026-04-26 10:31 | 49.06405 | 8.14568 | 37246 ft | 457 kts | 126° |
| 2026-04-26 10:31 | 49.02794 | 8.22536 | 37244 ft | 457 kts | 126° |
| 2026-04-26 10:32 | 48.99130 | 8.30436 | 37229 ft | 455 kts | 131° |
| 2026-04-26 10:32 | 48.94596 | 8.36960 | 37252 ft | 452 kts | 141° |
| 2026-04-26 10:33 | 48.90095 | 8.43746 | 37247 ft | 454 kts | 135° |
| 2026-04-26 10:33 | 48.85852 | 8.50790 | 37246 ft | 455 kts | 134° |
| 2026-04-26 10:34 | 48.81550 | 8.57857 | 37223 ft | 455 kts | 135° |
| 2026-04-26 10:34 | 48.77206 | 8.64854 | 37224 ft | 456 kts | 135° |
| 2026-04-26 10:35 | 48.72844 | 8.71815 | 37236 ft | 456 kts | 136° |
| 2026-04-26 10:35 | 48.68472 | 8.78767 | 37240 ft | 455 kts | 136° |
| 2026-04-26 10:36 | 48.64100 | 8.85706 | 37241 ft | 455 kts | 136° |
| 2026-04-26 10:36 | 48.59732 | 8.92621 | 37221 ft | 455 kts | 136° |
| 2026-04-26 10:37 | 48.55363 | 8.99521 | 37236 ft | 454 kts | 136° |
| 2026-04-26 10:37 | 48.51007 | 9.06382 | 37227 ft | 453 kts | 136° |
| 2026-04-26 10:38 | 48.46668 | 9.13197 | 37221 ft | 453 kts | 136° |
| 2026-04-26 10:38 | 48.42277 | 9.20076 | 37221 ft | 452 kts | 136° |
| 2026-04-26 10:39 | 48.37916 | 9.26890 | 37216 ft | 452 kts | 136° |
| 2026-04-26 10:39 | 48.33553 | 9.33690 | 37214 ft | 452 kts | 136° |
| 2026-04-26 10:40 | 48.29186 | 9.40482 | 37220 ft | 452 kts | 136° |
| 2026-04-26 10:40 | 48.24790 | 9.47204 | 37210 ft | 451 kts | 140° |
| 2026-04-26 10:41 | 48.19988 | 9.53243 | 37222 ft | 450 kts | 144° |
| 2026-04-26 10:41 | 48.15098 | 9.59093 | 37227 ft | 451 kts | 144° |
| 2026-04-26 10:42 | 48.10211 | 9.64997 | 37222 ft | 452 kts | 143° |
| 2026-04-26 10:42 | 48.05363 | 9.70909 | 37220 ft | 453 kts | 143° |
| 2026-04-26 10:43 | 48.00441 | 9.76919 | 37217 ft | 454 kts | 143° |
| 2026-04-26 10:43 | 47.95584 | 9.82834 | 37215 ft | 455 kts | 143° |
| 2026-04-26 10:44 | 47.90668 | 9.88804 | 37224 ft | 455 kts | 143° |
| 2026-04-26 10:44 | 47.85748 | 9.94763 | 37223 ft | 456 kts | 143° |
| 2026-04-26 10:45 | 47.80815 | 10.00722 | 37218 ft | 456 kts | 143° |
| 2026-04-26 10:45 | 47.75886 | 10.06662 | 37219 ft | 456 kts | 144° |
| 2026-04-26 10:46 | 47.70955 | 10.12589 | 37215 ft | 456 kts | 144° |
| 2026-04-26 10:46 | 47.66029 | 10.18496 | 37219 ft | 455 kts | 143° |
| 2026-04-26 10:47 | 47.61100 | 10.24394 | 37218 ft | 455 kts | 144° |
| 2026-04-26 10:47 | 47.56172 | 10.30271 | 37223 ft | 454 kts | 144° |
| 2026-04-26 10:48 | 47.51034 | 10.35564 | 37209 ft | 452 kts | 150° |
| 2026-04-26 10:48 | 47.45706 | 10.40595 | 37201 ft | 451 kts | 150° |
| 2026-04-26 10:49 | 47.40479 | 10.45600 | 37207 ft | 450 kts | 149° |
| 2026-04-26 10:49 | 47.35238 | 10.50678 | 37207 ft | 451 kts | 149° |
| 2026-04-26 10:50 | 47.30866 | 10.54909 | 37197 ft | 453 kts | 149° |
| 2026-04-26 10:50 | 47.24747 | 10.61002 | 37199 ft | 457 kts | 147° |
| 2026-04-26 10:51 | 47.16992 | 10.69227 | 37209 ft | 458 kts | 147° |
| 2026-04-26 10:52 | 47.11811 | 10.74680 | 37213 ft | 458 kts | 147° |
| 2026-04-26 10:52 | 47.06633 | 10.80080 | 37180 ft | 455 kts | 147° |
| 2026-04-26 10:53 | 47.01534 | 10.85382 | 37194 ft | 450 kts | 147° |
| 2026-04-26 10:53 | 46.96403 | 10.90705 | 37214 ft | 449 kts | 147° |
| 2026-04-26 10:54 | 46.88820 | 10.98548 | 37230 ft | 446 kts | 147° |
| 2026-04-26 10:54 | 46.83743 | 11.03786 | 37240 ft | 446 kts | 147° |
| 2026-04-26 10:55 | 46.78947 | 11.09591 | 37239 ft | 450 kts | 136° |
| 2026-04-26 10:55 | 46.75311 | 11.15149 | 37212 ft | 452 kts | 135° |
| 2026-04-26 10:56 | 46.70277 | 11.22925 | 37214 ft | 455 kts | 136° |
| 2026-04-26 10:56 | 46.65889 | 11.29590 | 37169 ft | 457 kts | 136° |
| 2026-04-26 10:57 | 46.61463 | 11.36244 | 37184 ft | 458 kts | 136° |
| 2026-04-26 10:57 | 46.57022 | 11.42888 | 37158 ft | 459 kts | 136° |
| 2026-04-26 10:58 | 46.52557 | 11.49551 | 37191 ft | 461 kts | 136° |
| 2026-04-26 10:58 | 46.48089 | 11.56204 | 37156 ft | 463 kts | 136° |
| 2026-04-26 10:59 | 46.43611 | 11.62859 | 37144 ft | 457 kts | 136° |
| 2026-04-26 10:59 | 46.39185 | 11.69421 | 37129 ft | 454 kts | 136° |
| 2026-04-26 11:00 | 46.35518 | 11.74845 | 37117 ft | 452 kts | 136° |
| 2026-04-26 11:00 | 46.31125 | 11.81325 | 37123 ft | 450 kts | 136° |
| 2026-04-26 11:01 | 46.26747 | 11.87767 | 37120 ft | 449 kts | 136° |
| 2026-04-26 11:01 | 46.22372 | 11.94191 | 37127 ft | 448 kts | 136° |
| 2026-04-26 11:02 | 46.17987 | 12.00614 | 37129 ft | 449 kts | 136° |
| 2026-04-26 11:02 | 46.13587 | 12.07043 | 37112 ft | 451 kts | 136° |
| 2026-04-26 11:03 | 46.09161 | 12.13494 | 37116 ft | 453 kts | 136° |
| 2026-04-26 11:03 | 46.04714 | 12.19961 | 37114 ft | 456 kts | 136° |
| 2026-04-26 11:04 | 46.00244 | 12.26445 | 37108 ft | 457 kts | 136° |
| 2026-04-26 11:04 | 45.95755 | 12.32941 | 37105 ft | 458 kts | 136° |
| 2026-04-26 11:05 | 45.91249 | 12.39446 | 37098 ft | 459 kts | 136° |
| 2026-04-26 11:05 | 45.86740 | 12.45941 | 37095 ft | 460 kts | 136° |
| 2026-04-26 11:06 | 45.82218 | 12.52436 | 37102 ft | 459 kts | 136° |
| 2026-04-26 11:06 | 45.77706 | 12.58902 | 37099 ft | 459 kts | 136° |
| 2026-04-26 11:07 | 45.73218 | 12.65318 | 37093 ft | 458 kts | 136° |
| 2026-04-26 11:07 | 45.68711 | 12.71746 | 37099 ft | 457 kts | 136° |
| 2026-04-26 11:08 | 45.64206 | 12.78156 | 37093 ft | 456 kts | 136° |
| 2026-04-26 11:08 | 45.59711 | 12.84536 | 37104 ft | 455 kts | 136° |
| 2026-04-26 11:09 | 45.55214 | 12.90903 | 37108 ft | 455 kts | 136° |
| 2026-04-26 11:09 | 45.50722 | 12.97249 | 37115 ft | 454 kts | 136° |
| 2026-04-26 11:10 | 45.46222 | 13.03591 | 37117 ft | 454 kts | 136° |
| 2026-04-26 11:10 | 45.41724 | 13.09915 | 37112 ft | 455 kts | 136° |
| 2026-04-26 11:11 | 45.37220 | 13.16235 | 37116 ft | 455 kts | 136° |
| 2026-04-26 11:11 | 45.32702 | 13.22559 | 37115 ft | 456 kts | 136° |
| 2026-04-26 11:12 | 45.28405 | 13.29187 | 37118 ft | 457 kts | 130° |
| 2026-04-26 11:12 | 45.24436 | 13.36238 | 37109 ft | 458 kts | 129° |
| 2026-04-26 11:13 | 45.20500 | 13.43286 | 37105 ft | 459 kts | 129° |
| 2026-04-26 11:13 | 45.16501 | 13.50337 | 37105 ft | 459 kts | 129° |
| 2026-04-26 11:14 | 45.12472 | 13.57364 | 37107 ft | 459 kts | 129° |
| 2026-04-26 11:14 | 45.08433 | 13.64373 | 37104 ft | 460 kts | 129° |
| 2026-04-26 11:15 | 45.04383 | 13.71383 | 37097 ft | 460 kts | 129° |
| 2026-04-26 11:15 | 45.00329 | 13.78386 | 37114 ft | 460 kts | 130° |
| 2026-04-26 11:16 | 44.96275 | 13.85373 | 37095 ft | 460 kts | 130° |
| 2026-04-26 11:16 | 44.92211 | 13.92361 | 37088 ft | 460 kts | 130° |
| 2026-04-26 11:17 | 44.88150 | 13.99326 | 37093 ft | 459 kts | 129° |
| 2026-04-26 11:17 | 44.84091 | 14.06271 | 37090 ft | 458 kts | 130° |
| 2026-04-26 11:18 | 44.80035 | 14.13193 | 37095 ft | 458 kts | 130° |
| 2026-04-26 11:18 | 44.75978 | 14.20100 | 37092 ft | 457 kts | 130° |
| 2026-04-26 11:19 | 44.71921 | 14.26991 | 37096 ft | 457 kts | 130° |
| 2026-04-26 11:19 | 44.67888 | 14.33823 | 37099 ft | 457 kts | 130° |
| 2026-04-26 11:20 | 44.64484 | 14.39578 | 37101 ft | 457 kts | 130° |
| 2026-04-26 11:20 | 44.59755 | 14.47553 | 37109 ft | 457 kts | 130° |
| 2026-04-26 11:21 | 44.55683 | 14.54402 | 37091 ft | 457 kts | 130° |
| 2026-04-26 11:21 | 44.51605 | 14.61246 | 37102 ft | 457 kts | 130° |
| 2026-04-26 11:22 | 44.47520 | 14.68084 | 37102 ft | 458 kts | 130° |
| 2026-04-26 11:22 | 44.43432 | 14.74911 | 37098 ft | 458 kts | 130° |
| 2026-04-26 11:23 | 44.39338 | 14.81733 | 37112 ft | 458 kts | 130° |
| 2026-04-26 11:23 | 44.35232 | 14.88557 | 37096 ft | 458 kts | 130° |
| 2026-04-26 11:24 | 44.31123 | 14.95371 | 37103 ft | 459 kts | 130° |
| 2026-04-26 11:24 | 44.27009 | 15.02175 | 37109 ft | 459 kts | 130° |
| 2026-04-26 11:25 | 44.22889 | 15.08973 | 37112 ft | 459 kts | 130° |
| 2026-04-26 11:25 | 44.18764 | 15.15764 | 37121 ft | 459 kts | 130° |
| 2026-04-26 11:26 | 44.14633 | 15.22550 | 37099 ft | 459 kts | 130° |
| 2026-04-26 11:26 | 44.10499 | 15.29323 | 37097 ft | 459 kts | 130° |
| 2026-04-26 11:27 | 44.06358 | 15.36093 | 37101 ft | 459 kts | 130° |
| 2026-04-26 11:27 | 44.02216 | 15.42847 | 37091 ft | 459 kts | 130° |
| 2026-04-26 11:28 | 43.98071 | 15.49590 | 37090 ft | 458 kts | 130° |
| 2026-04-26 11:28 | 43.93931 | 15.56310 | 37095 ft | 458 kts | 130° |
| 2026-04-26 11:29 | 43.89784 | 15.63026 | 37086 ft | 458 kts | 130° |
| 2026-04-26 11:29 | 43.85639 | 15.69722 | 37095 ft | 458 kts | 130° |
| 2026-04-26 11:30 | 43.82189 | 15.75283 | 37098 ft | 458 kts | 131° |
| 2026-04-26 11:30 | 43.77340 | 15.83083 | 37089 ft | 457 kts | 131° |
| 2026-04-26 11:31 | 43.73187 | 15.89745 | 37090 ft | 457 kts | 131° |
| 2026-04-26 11:31 | 43.69029 | 15.96400 | 37088 ft | 457 kts | 131° |
| 2026-04-26 11:32 | 43.64889 | 16.03011 | 37096 ft | 457 kts | 131° |
| 2026-04-26 11:32 | 43.60722 | 16.09649 | 37096 ft | 458 kts | 131° |
| 2026-04-26 11:33 | 43.56549 | 16.16284 | 37084 ft | 457 kts | 131° |
| 2026-04-26 11:33 | 43.52376 | 16.22901 | 37088 ft | 457 kts | 131° |
| 2026-04-26 11:34 | 43.48198 | 16.29512 | 37096 ft | 457 kts | 131° |
| 2026-04-26 11:34 | 43.44017 | 16.36112 | 37100 ft | 457 kts | 131° |
| 2026-04-26 11:35 | 43.39835 | 16.42699 | 37093 ft | 457 kts | 131° |
| 2026-04-26 11:35 | 43.36359 | 16.48161 | 37108 ft | 457 kts | 131° |
| 2026-04-26 11:36 | 43.31456 | 16.55850 | 37098 ft | 458 kts | 131° |
| 2026-04-26 11:36 | 43.27251 | 16.62428 | 37092 ft | 458 kts | 132° |
| 2026-04-26 11:37 | 43.23045 | 16.68992 | 37101 ft | 458 kts | 132° |
| 2026-04-26 11:37 | 43.18833 | 16.75551 | 37101 ft | 458 kts | 132° |
| 2026-04-26 11:38 | 43.14617 | 16.82102 | 37102 ft | 458 kts | 132° |
| 2026-04-26 11:38 | 43.10400 | 16.88638 | 37108 ft | 458 kts | 132° |
| 2026-04-26 11:39 | 43.06202 | 16.95131 | 37101 ft | 459 kts | 132° |
| 2026-04-26 11:39 | 43.01972 | 17.01659 | 37100 ft | 459 kts | 133° |
| 2026-04-26 11:40 | 42.97730 | 17.08190 | 37109 ft | 460 kts | 133° |
| 2026-04-26 11:40 | 42.93478 | 17.14722 | 37099 ft | 460 kts | 133° |
| 2026-04-26 11:42 | 42.76437 | 17.40755 | 37106 ft | 461 kts | 133° |
| 2026-04-26 11:43 | 42.72159 | 17.47252 | 37091 ft | 461 kts | 133° |
| 2026-04-26 11:43 | 42.67877 | 17.53743 | 37098 ft | 461 kts | 133° |
| 2026-04-26 11:44 | 42.63591 | 17.60225 | 37091 ft | 461 kts | 133° |
| 2026-04-26 11:44 | 42.60028 | 17.65603 | 37098 ft | 461 kts | 133° |
| 2026-04-26 11:45 | 42.55736 | 17.72067 | 37098 ft | 461 kts | 133° |
| 2026-04-26 11:45 | 42.51440 | 17.78523 | 37098 ft | 461 kts | 134° |
| 2026-04-26 11:46 | 42.47138 | 17.84974 | 37104 ft | 461 kts | 134° |
| 2026-04-26 11:46 | 42.42831 | 17.91418 | 37099 ft | 462 kts | 134° |
| 2026-04-26 11:47 | 42.38519 | 17.97856 | 37096 ft | 462 kts | 134° |
| 2026-04-26 11:47 | 42.34232 | 18.04241 | 37099 ft | 461 kts | 134° |
| 2026-04-26 11:48 | 42.29916 | 18.10657 | 37100 ft | 461 kts | 134° |
| 2026-04-26 11:48 | 42.25593 | 18.17068 | 37101 ft | 461 kts | 134° |
| 2026-04-26 11:49 | 42.21270 | 18.23466 | 37098 ft | 461 kts | 134° |
| 2026-04-26 11:49 | 42.16943 | 18.29855 | 37098 ft | 461 kts | 134° |
| 2026-04-26 11:50 | 42.12612 | 18.36237 | 37094 ft | 461 kts | 134° |
| 2026-04-26 11:50 | 42.08286 | 18.42599 | 37103 ft | 460 kts | 134° |
| 2026-04-26 11:51 | 42.03964 | 18.48943 | 37100 ft | 460 kts | 134° |
| 2026-04-26 11:51 | 41.99670 | 18.55307 | 37102 ft | 459 kts | 132° |
| 2026-04-26 11:52 | 41.95559 | 18.61875 | 37105 ft | 459 kts | 131° |
| 2026-04-26 11:52 | 41.91417 | 18.68406 | 37102 ft | 459 kts | 133° |
| 2026-04-26 11:53 | 41.87204 | 18.74830 | 37091 ft | 458 kts | 133° |
| 2026-04-26 11:54 | 41.80869 | 18.84413 | 37101 ft | 458 kts | 133° |
| 2026-04-26 11:54 | 41.76649 | 18.90802 | 37104 ft | 458 kts | 133° |
| 2026-04-26 11:55 | 41.72430 | 18.97188 | 37105 ft | 458 kts | 133° |
| 2026-04-26 11:55 | 41.68206 | 19.03568 | 37098 ft | 458 kts | 133° |
| 2026-04-26 11:56 | 41.63977 | 19.09940 | 37100 ft | 458 kts | 133° |
| 2026-04-26 11:56 | 41.59742 | 19.16309 | 37082 ft | 458 kts | 134° |
| 2026-04-26 11:57 | 41.55501 | 19.22672 | 37094 ft | 458 kts | 134° |
| 2026-04-26 11:57 | 41.51259 | 19.29024 | 37090 ft | 459 kts | 134° |
| 2026-04-26 11:58 | 41.47039 | 19.35329 | 37090 ft | 459 kts | 134° |
| 2026-04-26 11:58 | 41.42789 | 19.41666 | 37085 ft | 459 kts | 134° |
| 2026-04-26 11:59 | 41.38532 | 19.48000 | 37075 ft | 459 kts | 134° |
| 2026-04-26 11:59 | 41.34270 | 19.54327 | 37080 ft | 459 kts | 134° |
| 2026-04-26 12:00 | 41.30005 | 19.60646 | 37073 ft | 459 kts | 134° |
| 2026-04-26 12:00 | 41.25733 | 19.66961 | 37068 ft | 460 kts | 134° |
| 2026-04-26 12:01 | 41.21452 | 19.73278 | 37074 ft | 460 kts | 134° |
| 2026-04-26 12:01 | 41.17163 | 19.79593 | 37057 ft | 460 kts | 134° |
| 2026-04-26 12:02 | 41.12873 | 19.85895 | 37071 ft | 460 kts | 134° |
| 2026-04-26 12:02 | 41.08575 | 19.92199 | 37071 ft | 461 kts | 134° |
| 2026-04-26 12:03 | 41.04435 | 19.98683 | 37061 ft | 462 kts | 129° |
| 2026-04-26 12:03 | 41.00567 | 20.05479 | 37056 ft | 462 kts | 128° |
| 2026-04-26 12:04 | 40.96717 | 20.12292 | 37054 ft | 462 kts | 129° |
| 2026-04-26 12:04 | 40.92831 | 20.19078 | 37048 ft | 463 kts | 129° |
| 2026-04-26 12:05 | 40.88921 | 20.25846 | 37048 ft | 463 kts | 129° |
| 2026-04-26 12:05 | 40.84996 | 20.32618 | 37049 ft | 463 kts | 129° |
| 2026-04-26 12:06 | 40.81073 | 20.39371 | 37057 ft | 464 kts | 129° |
| 2026-04-26 12:06 | 40.77169 | 20.46082 | 37039 ft | 464 kts | 129° |
| 2026-04-26 12:07 | 40.73234 | 20.52830 | 37023 ft | 464 kts | 129° |
| 2026-04-26 12:07 | 40.69294 | 20.59571 | 37034 ft | 463 kts | 129° |
| 2026-04-26 12:08 | 40.65355 | 20.66298 | 37035 ft | 464 kts | 129° |
| 2026-04-26 12:08 | 40.61410 | 20.73021 | 37030 ft | 463 kts | 129° |
| 2026-04-26 12:09 | 40.57468 | 20.79724 | 37036 ft | 463 kts | 129° |
| 2026-04-26 12:09 | 40.53520 | 20.86424 | 37032 ft | 463 kts | 129° |
| 2026-04-26 12:10 | 40.49568 | 20.93117 | 37029 ft | 463 kts | 129° |
| 2026-04-26 12:10 | 40.45173 | 20.99262 | 37028 ft | 460 kts | 140° |
| 2026-04-26 12:11 | 40.40324 | 21.04731 | 37031 ft | 460 kts | 141° |
| 2026-04-26 12:11 | 40.35468 | 21.10193 | 37035 ft | 460 kts | 141° |
| 2026-04-26 12:12 | 40.30645 | 21.15698 | 37030 ft | 460 kts | 140° |
| 2026-04-26 12:12 | 40.25834 | 21.21221 | 37036 ft | 460 kts | 140° |
| 2026-04-26 12:13 | 40.21017 | 21.26743 | 37039 ft | 461 kts | 141° |
| 2026-04-26 12:13 | 40.16189 | 21.32262 | 37021 ft | 461 kts | 140° |
| 2026-04-26 12:14 | 40.11361 | 21.37770 | 37028 ft | 461 kts | 140° |
| 2026-04-26 12:14 | 40.06551 | 21.43247 | 37027 ft | 461 kts | 140° |
| 2026-04-26 12:15 | 40.01712 | 21.48747 | 37028 ft | 461 kts | 140° |
| 2026-04-26 12:15 | 39.96870 | 21.54239 | 37019 ft | 461 kts | 141° |
| 2026-04-26 12:16 | 39.92029 | 21.59713 | 37024 ft | 460 kts | 141° |
| 2026-04-26 12:16 | 39.87188 | 21.65174 | 37020 ft | 460 kts | 141° |
| 2026-04-26 12:17 | 39.82352 | 21.70620 | 37014 ft | 460 kts | 141° |
| 2026-04-26 12:17 | 39.77508 | 21.76067 | 37021 ft | 460 kts | 141° |
| 2026-04-26 12:18 | 39.72664 | 21.81504 | 37022 ft | 460 kts | 140° |
| 2026-04-26 12:18 | 39.67813 | 21.86940 | 37006 ft | 460 kts | 140° |
| 2026-04-26 12:19 | 39.62968 | 21.92357 | 37013 ft | 460 kts | 140° |
| 2026-04-26 12:19 | 39.58120 | 21.97767 | 37019 ft | 459 kts | 140° |
| 2026-04-26 12:20 | 39.53271 | 22.03167 | 37025 ft | 459 kts | 140° |
| 2026-04-26 12:20 | 39.48428 | 22.08551 | 37020 ft | 459 kts | 140° |
| 2026-04-26 12:21 | 39.43612 | 22.13895 | 37027 ft | 458 kts | 140° |
| 2026-04-26 12:21 | 39.38770 | 22.19258 | 37026 ft | 459 kts | 140° |
| 2026-04-26 12:22 | 39.33922 | 22.24617 | 37032 ft | 458 kts | 140° |
| 2026-04-26 12:22 | 39.29070 | 22.29970 | 37030 ft | 459 kts | 140° |
| 2026-04-26 12:23 | 39.24215 | 22.35317 | 37015 ft | 459 kts | 140° |
| 2026-04-26 12:23 | 39.19349 | 22.40665 | 37022 ft | 459 kts | 140° |
| 2026-04-26 12:24 | 39.14485 | 22.46001 | 37021 ft | 459 kts | 140° |
| 2026-04-26 12:24 | 39.09614 | 22.51335 | 37018 ft | 460 kts | 140° |
| 2026-04-26 12:25 | 39.02297 | 22.59328 | 37024 ft | 460 kts | 140° |
| 2026-04-26 12:25 | 38.97408 | 22.64657 | 37028 ft | 461 kts | 140° |
| 2026-04-26 12:26 | 38.92518 | 22.69976 | 37021 ft | 461 kts | 140° |
| 2026-04-26 12:26 | 38.87625 | 22.75289 | 37020 ft | 461 kts | 140° |
| 2026-04-26 12:27 | 38.82733 | 22.80591 | 37021 ft | 460 kts | 140° |
| 2026-04-26 12:27 | 38.77843 | 22.85881 | 37030 ft | 460 kts | 140° |
| 2026-04-26 12:28 | 38.72953 | 22.91161 | 37026 ft | 459 kts | 140° |
| 2026-04-26 12:28 | 38.68062 | 22.96432 | 37021 ft | 460 kts | 140° |
| 2026-04-26 12:29 | 38.63172 | 23.01693 | 37026 ft | 459 kts | 140° |
| 2026-04-26 12:30 | 38.55826 | 23.09578 | 37027 ft | 459 kts | 140° |
| 2026-04-26 12:30 | 38.51753 | 23.13939 | 37025 ft | 459 kts | 139° |
| 2026-04-26 12:31 | 38.44404 | 23.21794 | 37032 ft | 460 kts | 139° |
| 2026-04-26 12:31 | 38.39496 | 23.27028 | 37011 ft | 460 kts | 139° |
| 2026-04-26 12:32 | 38.34578 | 23.32262 | 37020 ft | 460 kts | 139° |
| 2026-04-26 12:33 | 38.27198 | 23.40100 | 37021 ft | 461 kts | 140° |
| 2026-04-26 12:33 | 38.22275 | 23.45318 | 37033 ft | 461 kts | 139° |
| 2026-04-26 12:34 | 38.17378 | 23.50499 | 37014 ft | 461 kts | 139° |
| 2026-04-26 12:34 | 38.12445 | 23.55699 | 37016 ft | 461 kts | 139° |
| 2026-04-26 12:35 | 38.07499 | 23.60901 | 36705 ft | 463 kts | 139° |
| 2026-04-26 12:35 | 38.05036 | 23.63490 | 36422 ft | 457 kts | 139° |
| 2026-04-26 12:35 | 38.02598 | 23.66049 | 36013 ft | 452 kts | 139° |
| 2026-04-26 12:35 | 38.00190 | 23.68576 | 35637 ft | 448 kts | 139° |
| 2026-04-26 12:36 | 37.97800 | 23.71083 | 35252 ft | 444 kts | 139° |
| 2026-04-26 12:36 | 37.95427 | 23.73570 | 34870 ft | 441 kts | 139° |
| 2026-04-26 12:36 | 37.93068 | 23.76041 | 34502 ft | 438 kts | 138° |
| 2026-04-26 12:36 | 37.90726 | 23.78488 | 34118 ft | 435 kts | 138° |
| 2026-04-26 12:37 | 37.88451 | 23.80986 | 33695 ft | 430 kts | 132° |
| 2026-04-26 12:37 | 37.86466 | 23.83783 | 33292 ft | 425 kts | 127° |
| 2026-04-26 12:37 | 37.84588 | 23.86641 | 32909 ft | 421 kts | 126° |
| 2026-04-26 12:37 | 37.82739 | 23.89490 | 32538 ft | 417 kts | 126° |
| 2026-04-26 12:38 | 37.80898 | 23.92313 | 32173 ft | 414 kts | 126° |
| 2026-04-26 12:38 | 37.79061 | 23.95105 | 31802 ft | 412 kts | 127° |
| 2026-04-26 12:38 | 37.77226 | 23.97870 | 31439 ft | 409 kts | 127° |
| 2026-04-26 12:38 | 37.75397 | 24.00612 | 31082 ft | 407 kts | 127° |
| 2026-04-26 12:39 | 37.73576 | 24.03332 | 30722 ft | 404 kts | 127° |
| 2026-04-26 12:39 | 37.71762 | 24.06038 | 30374 ft | 402 kts | 127° |
| 2026-04-26 12:39 | 37.69957 | 24.08725 | 30028 ft | 400 kts | 126° |
| 2026-04-26 12:39 | 37.68162 | 24.11397 | 29612 ft | 398 kts | 126° |
| 2026-04-26 12:40 | 37.66379 | 24.14049 | 29213 ft | 395 kts | 126° |
| 2026-04-26 12:40 | 37.64610 | 24.16679 | 28852 ft | 391 kts | 127° |
| 2026-04-26 12:40 | 37.62877 | 24.19254 | 28480 ft | 388 kts | 127° |
| 2026-04-26 12:40 | 37.61115 | 24.21871 | 28125 ft | 384 kts | 127° |
| 2026-04-26 12:41 | 37.59413 | 24.24396 | 27761 ft | 381 kts | 127° |
| 2026-04-26 12:41 | 37.57701 | 24.26933 | 27405 ft | 379 kts | 127° |
| 2026-04-26 12:41 | 37.55944 | 24.29392 | 27045 ft | 378 kts | 133° |
| 2026-04-26 12:41 | 37.53886 | 24.31454 | 26694 ft | 379 kts | 144° |
| 2026-04-26 12:42 | 37.51666 | 24.33217 | 26368 ft | 376 kts | 146° |
| 2026-04-26 12:42 | 37.49443 | 24.34931 | 26026 ft | 374 kts | 146° |
| 2026-04-26 12:42 | 37.47228 | 24.36632 | 25680 ft | 371 kts | 146° |
| 2026-04-26 12:42 | 37.45035 | 24.38322 | 25339 ft | 369 kts | 146° |
| 2026-04-26 12:43 | 37.42853 | 24.40013 | 25015 ft | 367 kts | 146° |
| 2026-04-26 12:43 | 37.40681 | 24.41704 | 24684 ft | 366 kts | 145° |
| 2026-04-26 12:43 | 37.38525 | 24.43388 | 24335 ft | 364 kts | 145° |
| 2026-04-26 12:43 | 37.36376 | 24.45068 | 23999 ft | 363 kts | 145° |
| 2026-04-26 12:44 | 37.34233 | 24.46745 | 23638 ft | 363 kts | 145° |
| 2026-04-26 12:44 | 37.32099 | 24.48414 | 23250 ft | 361 kts | 145° |
| 2026-04-26 12:44 | 37.29969 | 24.50078 | 22878 ft | 359 kts | 145° |
| 2026-04-26 12:44 | 37.27858 | 24.51727 | 22522 ft | 356 kts | 145° |
| 2026-04-26 12:45 | 37.25760 | 24.53364 | 22177 ft | 354 kts | 145° |
| 2026-04-26 12:45 | 37.23678 | 24.54989 | 21840 ft | 351 kts | 145° |
| 2026-04-26 12:45 | 37.21608 | 24.56602 | 21506 ft | 349 kts | 145° |
| 2026-04-26 12:45 | 37.19554 | 24.58203 | 21178 ft | 347 kts | 145° |
| 2026-04-26 12:46 | 37.17512 | 24.59793 | 20850 ft | 345 kts | 145° |
| 2026-04-26 12:46 | 37.15481 | 24.61373 | 20519 ft | 343 kts | 145° |
| 2026-04-26 12:46 | 37.13461 | 24.62944 | 20195 ft | 341 kts | 145° |
| 2026-04-26 12:46 | 37.11450 | 24.64507 | 19866 ft | 339 kts | 145° |
| 2026-04-26 12:47 | 37.09447 | 24.66063 | 19541 ft | 338 kts | 145° |
| 2026-04-26 12:47 | 37.07454 | 24.67610 | 19219 ft | 337 kts | 145° |
| 2026-04-26 12:47 | 37.05466 | 24.69153 | 18892 ft | 335 kts | 145° |
| 2026-04-26 12:47 | 37.03488 | 24.70686 | 18562 ft | 335 kts | 145° |
| 2026-04-26 12:48 | 37.01509 | 24.72220 | 18227 ft | 334 kts | 145° |
| 2026-04-26 12:48 | 36.99537 | 24.73747 | 17862 ft | 333 kts | 146° |
| 2026-04-26 12:48 | 36.97578 | 24.75263 | 17516 ft | 331 kts | 146° |
| 2026-04-26 12:48 | 36.95623 | 24.76776 | 17178 ft | 329 kts | 146° |
| 2026-04-26 12:49 | 36.93707 | 24.78256 | 16843 ft | 327 kts | 146° |
| 2026-04-26 12:49 | 36.91776 | 24.79748 | 16532 ft | 325 kts | 146° |
| 2026-04-26 12:49 | 36.89855 | 24.81237 | 16210 ft | 324 kts | 146° |
| 2026-04-26 12:49 | 36.87948 | 24.82719 | 15894 ft | 322 kts | 146° |
| 2026-04-26 12:50 | 36.86052 | 24.84193 | 15577 ft | 320 kts | 146° |
| 2026-04-26 12:50 | 36.84164 | 24.85659 | 15260 ft | 319 kts | 146° |
| 2026-04-26 12:50 | 36.82281 | 24.87121 | 14941 ft | 318 kts | 146° |
| 2026-04-26 12:50 | 36.80408 | 24.88574 | 14628 ft | 316 kts | 146° |
| 2026-04-26 12:51 | 36.78544 | 24.90019 | 14314 ft | 315 kts | 146° |
| 2026-04-26 12:51 | 36.76682 | 24.91462 | 14000 ft | 314 kts | 146° |
| 2026-04-26 12:51 | 36.74829 | 24.92896 | 13667 ft | 313 kts | 146° |
| 2026-04-26 12:51 | 36.72981 | 24.94325 | 13319 ft | 312 kts | 146° |
| 2026-04-26 12:52 | 36.71246 | 24.95920 | 12957 ft | 308 kts | 129° |
| 2026-04-26 12:52 | 36.70186 | 24.98173 | 12740 ft | 297 kts | 106° |
| 2026-04-26 12:52 | 36.69784 | 25.00654 | 12491 ft | 290 kts | 95° |
| 2026-04-26 12:52 | 36.69535 | 25.03138 | 12191 ft | 288 kts | 95° |
| 2026-04-26 12:53 | 36.69298 | 25.05601 | 12048 ft | 284 kts | 95° |
| 2026-04-26 12:53 | 36.69056 | 25.08024 | 12015 ft | 278 kts | 95° |
| 2026-04-26 12:53 | 36.68813 | 25.10365 | 12010 ft | 267 kts | 96° |
| 2026-04-26 12:53 | 36.68574 | 25.12608 | 11990 ft | 255 kts | 95° |
| 2026-04-26 12:54 | 36.68349 | 25.14719 | 11987 ft | 243 kts | 96° |
| 2026-04-26 12:54 | 36.68121 | 25.16787 | 11796 ft | 241 kts | 99° |
| 2026-04-26 12:54 | 36.67384 | 25.18729 | 11200 ft | 257 kts | 133° |
| 2026-04-26 12:54 | 36.66046 | 25.20205 | 10716 ft | 266 kts | 138° |
| 2026-04-26 12:55 | 36.64564 | 25.21757 | 9960 ft | 286 kts | 139° |
| 2026-04-26 12:55 | 36.63037 | 25.23352 | 9600 ft | 288 kts | 139° |
| 2026-04-26 12:55 | 36.61502 | 25.24961 | 9281 ft | 288 kts | 139° |
| 2026-04-26 12:55 | 36.59975 | 25.26567 | 8966 ft | 287 kts | 139° |
| 2026-04-26 12:56 | 36.58454 | 25.28174 | 8660 ft | 286 kts | 138° |
| 2026-04-26 12:56 | 36.56938 | 25.29778 | 8356 ft | 285 kts | 138° |
| 2026-04-26 12:56 | 36.55433 | 25.31373 | 8053 ft | 284 kts | 137° |
| 2026-04-26 12:56 | 36.53931 | 25.32965 | 7767 ft | 283 kts | 137° |
| 2026-04-26 12:57 | 36.52434 | 25.34551 | 7472 ft | 282 kts | 137° |
| 2026-04-26 12:57 | 36.50942 | 25.36134 | 7179 ft | 282 kts | 137° |
| 2026-04-26 12:57 | 36.49451 | 25.37714 | 6888 ft | 281 kts | 137° |
| 2026-04-26 12:58 | 36.46475 | 25.40869 | 6309 ft | 282 kts | 137° |
| 2026-04-26 12:58 | 36.44975 | 25.42458 | 5958 ft | 285 kts | 137° |
| 2026-04-26 12:58 | 36.43466 | 25.44049 | 5694 ft | 283 kts | 137° |
| 2026-04-26 12:58 | 36.41989 | 25.45612 | 5402 ft | 283 kts | 137° |
| 2026-04-26 12:59 | 36.40498 | 25.47188 | 5214 ft | 278 kts | 137° |
| 2026-04-26 12:59 | 36.39049 | 25.48729 | 5091 ft | 271 kts | 136° |
| 2026-04-26 12:59 | 36.37678 | 25.50293 | 4953 ft | 265 kts | 134° |
| 2026-04-26 12:59 | 36.36354 | 25.51839 | 4838 ft | 258 kts | 134° |
| 2026-04-26 13:00 | 36.35068 | 25.53339 | 4724 ft | 250 kts | 134° |
| 2026-04-26 13:00 | 36.33816 | 25.54792 | 4541 ft | 243 kts | 134° |
| 2026-04-26 13:00 | 36.32600 | 25.56194 | 4306 ft | 235 kts | 134° |
| 2026-04-26 13:00 | 36.31417 | 25.57556 | 4053 ft | 229 kts | 134° |
| 2026-04-26 13:01 | 36.30267 | 25.58880 | 3816 ft | 222 kts | 134° |
| 2026-04-26 13:01 | 36.29089 | 25.60080 | 3561 ft | 219 kts | 152° |
| 2026-04-26 13:01 | 36.27616 | 25.60324 | 3374 ft | 214 kts | 192° |
| 2026-04-26 13:01 | 36.26366 | 25.59468 | 3254 ft | 202 kts | 232° |
| 2026-04-26 13:02 | 36.25819 | 25.57902 | 3276 ft | 201 kts | 270° |
| 2026-04-26 13:02 | 36.26190 | 25.56307 | 3102 ft | 191 kts | 317° |
| 2026-04-26 13:02 | 36.27300 | 25.55621 | 3030 ft | 176 kts | 356° |
| 2026-04-26 13:02 | 36.28475 | 25.55312 | 2992 ft | 170 kts | 345° |
| 2026-04-26 13:03 | 36.29604 | 25.54895 | 2897 ft | 172 kts | 348° |
| 2026-04-26 13:03 | 36.30739 | 25.54388 | 2619 ft | 174 kts | 334° |
| 2026-04-26 13:03 | 36.31677 | 25.53482 | 2338 ft | 169 kts | 319° |
| 2026-04-26 13:03 | 36.32504 | 25.52469 | 2006 ft | 165 kts | 319° |
| 2026-04-26 13:04 | 36.33299 | 25.51505 | 1743 ft | 154 kts | 319° |
| 2026-04-26 13:04 | 36.34124 | 25.50748 | 1437 ft | 143 kts | 333° |
| 2026-04-26 13:04 | 36.34987 | 25.50185 | 1159 ft | 139 kts | 338° |
| 2026-04-26 13:04 | 36.35914 | 25.49819 | 877 ft | 136 kts | 342° |
| 2026-04-26 13:05 | 36.36797 | 25.49411 | 588 ft | 134 kts | 338° |
| 2026-04-26 13:05 | 36.37658 | 25.48982 | 399 ft | 130 kts | 338° |
| 2026-04-26 13:05 | 36.38517 | 25.48577 | 199 ft | 137 kts | 338° |
| 2026-04-26 13:05 | 36.39389 | 25.48168 | 62 ft | 130 kts | 340° |
| 2026-04-26 13:06 | 36.40056 | 25.47851 | 87 ft | 71 kts | 339° |
| 2026-04-26 13:06 | 36.40421 | 25.47681 | 89 ft | 52 kts | 340° |
| 2026-04-26 13:06 | 36.40722 | 25.47537 | 90 ft | 30 kts | 338° |
| 2026-04-26 13:06 | 36.40846 | 25.47474 | 95 ft | 9 kts | 319° |
| 2026-04-26 13:07 | 36.40843 | 25.47402 | 91 ft | 9 kts | 249° |
| 2026-04-26 13:07 | 36.40814 | 25.47337 | 91 ft | 9 kts | 211° |
| 2026-04-26 13:07 | 36.40757 | 25.47351 | 91 ft | 9 kts | 158° |
| 2026-04-26 13:07 | 36.40702 | 25.47378 | 93 ft | 8 kts | 159° |
| 2026-04-26 13:08 | 36.40648 | 25.47402 | 92 ft | 8 kts | 160° |
| 2026-04-26 13:08 | 36.40597 | 25.47426 | 90 ft | 8 kts | 159° |
| 2026-04-26 13:08 | 36.40547 | 25.47449 | 91 ft | 8 kts | 159° |
| 2026-04-26 13:08 | 36.40498 | 25.47472 | 91 ft | 7 kts | 159° |
| 2026-04-26 13:09 | 36.40449 | 25.47494 | 91 ft | 8 kts | 172° |
| 2026-04-26 13:09 | 36.40417 | 25.47444 | 89 ft | 8 kts | 245° |
| 2026-04-26 13:09 | 36.40371 | 25.47432 | 90 ft | 8 kts | 155° |
| 2026-04-26 13:09 | 36.40321 | 25.47445 | 91 ft | 7 kts | 213° |
| 2026-04-26 13:10 | 36.40308 | 25.47409 | 89 ft | 3 kts | 248° |
| 2026-04-26 13:10 | 36.40305 | 25.47402 | 89 ft | 0 kts | 248° |